馬祖南竿航空站 - ATIS

METAR RCFG 190000Z 36013KT 9999 FEW016 SCT070 BKN150 14/08 Q1023 NOSIG RMK MAX WND 17KT 35010KT/R21 35011KT/NJL A3021(J)=

站台狀態:Online
最後更新:2019-01-19 08:00:02